createdAt,value
2018-06-28T00:00:05.696Z,5.70
2018-06-28T00:02:34.777Z,5.07
2018-06-28T00:05:03.907Z,5.63
2018-06-28T00:07:33.384Z,5.27
2018-06-28T00:10:02.508Z,5.73
2018-06-28T00:12:31.534Z,4.97
2018-06-28T00:15:00.560Z,5.13
2018-06-28T00:17:29.603Z,5.30
2018-06-28T00:19:58.629Z,5.30
2018-06-28T00:22:27.660Z,6.10
2018-06-28T00:24:56.702Z,5.70
2018-06-28T00:27:25.736Z,5.47
2018-06-28T00:29:54.731Z,5.70
2018-06-28T00:32:23.762Z,8.40
2018-06-28T00:34:52.771Z,6.50
2018-06-28T00:37:21.858Z,5.40
2018-06-28T00:39:50.853Z,6.63
2018-06-28T00:42:19.944Z,7.13
2018-06-28T00:44:49.085Z,6.50
2018-06-28T00:47:18.154Z,5.67
2018-06-28T00:49:47.238Z,5.97
2018-06-28T00:52:15.778Z,8.43
2018-06-28T00:54:44.831Z,5.33
2018-06-28T00:57:13.860Z,6.00
2018-06-28T00:59:42.951Z,5.87
2018-06-28T01:02:12.036Z,5.30
2018-06-28T01:04:41.070Z,6.77
2018-06-28T01:07:10.635Z,6.30
2018-06-28T01:09:39.698Z,6.73
2018-06-28T01:12:08.935Z,5.27
2018-06-28T01:14:38.015Z,10.23
2018-06-28T01:17:07.175Z,5.77
2018-06-28T01:19:36.224Z,5.67
2018-06-28T01:22:05.376Z,7.07
2018-06-28T01:24:34.435Z,5.97
2018-06-28T01:27:03.091Z,7.77
2018-06-28T01:29:32.151Z,5.23
2018-06-28T01:32:01.224Z,5.57
2018-06-28T01:34:30.323Z,5.50
2018-06-28T01:36:59.423Z,4.80
2018-06-28T01:39:28.490Z,6.17
2018-06-28T01:42:02.250Z,6.07
2018-06-28T01:44:31.338Z,6.93
2018-06-28T01:47:00.384Z,9.00
2018-06-28T01:49:29.466Z,7.43
2018-06-28T01:51:58.481Z,6.13
2018-06-28T01:54:27.542Z,9.23
2018-06-28T01:56:56.608Z,5.43
2018-06-28T01:59:25.655Z,6.43
2018-06-28T02:01:54.698Z,5.30
2018-06-28T02:04:23.748Z,7.00
2018-06-28T02:06:52.775Z,6.80
2018-06-28T02:09:21.815Z,5.43
2018-06-28T02:11:50.385Z,8.27
2018-06-28T02:14:19.442Z,5.20
2018-06-28T02:16:48.447Z,6.00
2018-06-28T02:19:17.474Z,9.63
2018-06-28T02:21:46.488Z,5.50
2018-06-28T02:24:15.620Z,6.10
2018-06-28T02:26:44.676Z,9.47
2018-06-28T02:29:13.743Z,5.43
2018-06-28T02:31:42.291Z,6.40
2018-06-28T02:34:11.307Z,5.90
2018-06-28T02:36:40.400Z,5.17
2018-06-28T02:39:09.508Z,6.13
2018-06-28T02:41:38.529Z,5.27
2018-06-28T02:44:07.563Z,4.73
2018-06-28T02:46:36.603Z,5.60
2018-06-28T02:49:05.641Z,5.63
2018-06-28T02:51:34.722Z,5.60
2018-06-28T02:54:03.744Z,6.53
2018-06-28T02:56:32.791Z,7.70
2018-06-28T02:59:01.815Z,9.40
2018-06-28T03:01:30.935Z,6.63
2018-06-28T03:03:59.949Z,6.57
2018-06-28T03:06:29.044Z,6.87
2018-06-28T03:08:58.076Z,7.27
2018-06-28T03:11:27.087Z,8.03
2018-06-28T03:13:56.111Z,7.40
2018-06-28T03:16:25.100Z,8.57
2018-06-28T03:18:54.144Z,7.33
2018-06-28T03:21:23.156Z,7.57
2018-06-28T03:23:52.199Z,8.13
2018-06-28T03:26:21.322Z,10.80
2018-06-28T03:28:50.408Z,7.37
2018-06-28T03:31:19.455Z,7.93
2018-06-28T03:33:48.474Z,7.20
2018-06-28T03:36:17.505Z,9.80
2018-06-28T03:38:46.595Z,9.50
2018-06-28T03:41:15.688Z,7.40
2018-06-28T03:43:44.728Z,8.43
2018-06-28T03:46:13.811Z,7.80
2018-06-28T03:48:42.807Z,12.47
2018-06-28T03:51:11.821Z,9.53
2018-06-28T03:53:40.873Z,11.70
2018-06-28T03:56:09.995Z,10.60
2018-06-28T03:58:38.994Z,9.43
2018-06-28T04:01:08.020Z,9.93
2018-06-28T04:03:37.032Z,10.90
2018-06-28T04:06:06.101Z,8.90
2018-06-28T04:08:35.243Z,10.90
2018-06-28T04:11:04.303Z,10.40
2018-06-28T04:13:33.379Z,10.93
2018-06-28T04:16:02.391Z,10.70
2018-06-28T04:18:31.438Z,11.10
2018-06-28T04:21:00.469Z,12.80
2018-06-28T04:23:29.581Z,10.63
2018-06-28T04:25:58.770Z,13.47
2018-06-28T04:28:27.815Z,9.93
2018-06-28T04:30:56.898Z,11.30
2018-06-28T04:33:25.908Z,10.50
2018-06-28T04:35:55.007Z,12.37
2018-06-28T04:38:24.022Z,11.63
2018-06-28T04:40:53.087Z,10.50
2018-06-28T04:43:22.199Z,9.80
2018-06-28T04:45:51.296Z,9.20
2018-06-28T04:48:20.359Z,9.70
2018-06-28T04:50:49.499Z,11.20
2018-06-28T04:53:18.547Z,13.67
2018-06-28T04:55:47.591Z,11.77
2018-06-28T04:58:16.658Z,10.90
2018-06-28T05:00:45.708Z,19.80
2018-06-28T05:03:14.787Z,12.20
2018-06-28T05:05:43.787Z,13.70
2018-06-28T05:08:12.846Z,13.20
2018-06-28T05:10:41.863Z,17.13
2018-06-28T05:13:10.899Z,14.00
2018-06-28T05:15:39.915Z,13.73
2018-06-28T05:18:09.003Z,15.13
2018-06-28T05:20:38.047Z,14.07
2018-06-28T05:23:07.111Z,12.37
2018-06-28T05:25:36.285Z,15.73
2018-06-28T05:28:05.375Z,14.07
2018-06-28T05:30:34.494Z,18.80
2018-06-28T05:33:03.561Z,13.43
2018-06-28T05:35:32.632Z,12.60
2018-06-28T05:38:01.647Z,13.23
2018-06-28T05:40:30.722Z,14.90
2018-06-28T05:42:59.731Z,15.37
2018-06-28T05:45:28.767Z,14.93
2018-06-28T05:47:57.931Z,13.00
2018-06-28T05:50:27.057Z,12.43
2018-06-28T05:52:56.951Z,14.77
2018-06-28T05:55:25.955Z,15.13
2018-06-28T05:57:55.027Z,15.20
2018-06-28T06:00:24.019Z,14.90
2018-06-28T06:02:53.215Z,15.60
2018-06-28T06:05:22.236Z,19.40
2018-06-28T06:07:51.935Z,19.90
2018-06-28T06:10:21.238Z,15.30
2018-06-28T06:12:50.283Z,16.27
2018-06-28T06:15:19.339Z,13.80
2018-06-28T06:17:48.368Z,18.30
2018-06-28T06:20:17.553Z,14.33
2018-06-28T06:22:46.608Z,15.03
2018-06-28T06:25:15.764Z,14.90
2018-06-28T06:27:45.292Z,16.40
2018-06-28T06:30:14.457Z,15.43
2018-06-28T06:32:43.582Z,16.10
2018-06-28T06:35:12.595Z,14.93
2018-06-28T06:37:41.624Z,16.73
2018-06-28T06:40:11.395Z,14.87
2018-06-28T06:42:40.460Z,15.67
2018-06-28T06:45:09.503Z,23.20
2018-06-28T06:47:38.700Z,17.27
2018-06-28T06:50:07.786Z,17.43
2018-06-28T06:52:36.841Z,19.93
2018-06-28T06:55:05.978Z,20.10
2018-06-28T06:57:35.045Z,20.63
2018-06-28T07:00:04.275Z,24.87
2018-06-28T07:02:33.363Z,20.67
2018-06-28T07:05:02.469Z,20.43
2018-06-28T07:07:31.648Z,24.00
2018-06-28T07:10:00.713Z,19.93
2018-06-28T07:12:29.795Z,20.03
2018-06-28T07:14:58.831Z,19.87
2018-06-28T07:17:27.866Z,20.03
2018-06-28T07:19:56.873Z,29.07
2018-06-28T07:22:25.928Z,22.03
2018-06-28T07:24:54.983Z,24.50
2018-06-28T07:27:24.143Z,24.10
2018-06-28T07:29:53.280Z,21.13
2018-06-28T07:32:22.342Z,19.00
2018-06-28T07:34:51.401Z,18.90
2018-06-28T07:37:20.452Z,21.20
2018-06-28T07:39:49.431Z,19.80
2018-06-28T07:42:18.540Z,19.60
2018-06-28T07:44:47.603Z,21.43
2018-06-28T07:47:16.643Z,17.50
2018-06-28T07:49:45.784Z,20.17
2018-06-28T07:52:14.828Z,19.90
2018-06-28T07:54:43.880Z,17.83
2018-06-28T07:57:12.874Z,21.43
2018-06-28T07:59:42.127Z,21.13
2018-06-28T08:02:11.213Z,26.77
2018-06-28T08:04:40.230Z,21.93
2018-06-28T08:07:09.302Z,21.80
2018-06-28T08:09:38.345Z,25.43
2018-06-28T08:12:07.411Z,25.03
2018-06-28T08:14:36.434Z,21.10
2018-06-28T08:17:05.489Z,22.10
2018-06-28T08:19:34.528Z,22.23
2018-06-28T08:22:03.533Z,25.10
2018-06-28T08:24:32.579Z,22.67
2018-06-28T08:27:01.647Z,22.90
2018-06-28T08:29:30.691Z,23.83
2018-06-28T08:31:59.692Z,24.20
2018-06-28T08:34:28.872Z,20.77
2018-06-28T08:36:57.899Z,22.17
2018-06-28T08:39:27.020Z,26.83
2018-06-28T08:41:56.064Z,21.37
2018-06-28T08:44:25.103Z,20.60
2018-06-28T08:46:54.248Z,22.23
2018-06-28T08:49:24.015Z,24.97
2018-06-28T08:51:53.291Z,27.80
2018-06-28T08:54:22.336Z,28.20
2018-06-28T08:56:51.364Z,27.53
2018-06-28T08:59:20.371Z,23.97
2018-06-28T09:01:49.426Z,21.73
2018-06-28T09:04:17.990Z,30.37
2018-06-28T09:06:47.144Z,25.07
2018-06-28T09:09:16.141Z,27.47
2018-06-28T09:11:45.203Z,28.97
2018-06-28T09:14:14.214Z,26.20
2018-06-28T09:16:43.291Z,26.00
2018-06-28T09:19:12.305Z,29.90
2018-06-28T09:21:42.459Z,31.23
2018-06-28T09:24:11.513Z,28.80
2018-06-28T09:26:40.695Z,27.40
2018-06-28T09:29:09.804Z,33.50
2018-06-28T09:31:38.822Z,33.50
2018-06-28T09:34:07.997Z,34.70
2018-06-28T09:36:37.024Z,34.60
2018-06-28T09:39:08.999Z,29.57
2018-06-28T09:41:38.111Z,33.00
2018-06-28T09:44:07.284Z,30.63
2018-06-28T09:46:36.314Z,33.97
2018-06-28T09:49:05.370Z,32.23
2018-06-28T09:51:34.975Z,37.53
2018-06-28T09:54:04.192Z,33.63
2018-06-28T09:56:33.449Z,36.60
2018-06-28T09:59:02.675Z,27.80
2018-06-28T10:01:31.775Z,25.53
2018-06-28T10:04:00.798Z,27.47
2018-06-28T10:06:29.900Z,30.40
2018-06-28T10:08:58.949Z,32.67
2018-06-28T10:11:27.574Z,38.47
2018-06-28T10:13:56.628Z,35.00
2018-06-28T10:16:26.064Z,30.37
2018-06-28T10:18:55.162Z,32.63
2018-06-28T10:21:24.268Z,31.47
2018-06-28T10:23:53.348Z,31.57
2018-06-28T10:26:22.483Z,43.10
2018-06-28T10:28:51.813Z,34.50
2018-06-28T10:31:21.439Z,28.80
2018-06-28T10:33:50.647Z,32.50
2018-06-28T10:36:19.655Z,35.93
2018-06-28T10:38:48.702Z,36.63
2018-06-28T10:41:17.750Z,34.20
2018-06-28T10:43:46.788Z,37.07
2018-06-28T10:46:15.355Z,36.80
2018-06-28T10:48:44.353Z,36.40
2018-06-28T10:51:13.398Z,34.93
2018-06-28T10:53:42.451Z,30.60
2018-06-28T10:56:11.502Z,30.30
2018-06-28T10:58:40.599Z,29.83
2018-06-28T11:01:09.751Z,36.30
2018-06-28T11:03:39.171Z,36.23
2018-06-28T11:06:08.283Z,38.50
2018-06-28T11:08:37.361Z,39.83
2018-06-28T11:11:06.436Z,31.63
2018-06-28T11:13:35.472Z,31.90
2018-06-28T11:16:04.540Z,28.87
2018-06-28T11:18:33.581Z,31.70
2018-06-28T11:21:02.586Z,30.33
2018-06-28T11:23:31.667Z,35.00
2018-06-28T11:26:00.662Z,36.13
2018-06-28T11:28:29.694Z,35.30
2018-06-28T11:30:58.786Z,32.60
2018-06-28T11:33:27.828Z,36.00
2018-06-28T11:35:56.984Z,35.27
2018-06-28T11:38:26.062Z,31.03
2018-06-28T11:40:55.115Z,33.90
2018-06-28T11:43:24.112Z,34.70
2018-06-28T11:45:53.186Z,33.37
2018-06-28T11:48:22.202Z,34.30
2018-06-28T11:50:51.235Z,30.83
2018-06-28T11:53:20.284Z,36.37
2018-06-28T11:55:49.288Z,38.77
2018-06-28T11:58:18.352Z,38.13
2018-06-28T12:00:47.412Z,41.10
2018-06-28T12:03:16.539Z,36.87
2018-06-28T12:05:45.596Z,35.93
2018-06-28T12:08:14.713Z,45.17
2018-06-28T12:10:43.724Z,41.70
2018-06-28T12:13:12.359Z,38.83
2018-06-28T12:15:47.524Z,41.93
2018-06-28T12:18:16.623Z,36.40
2018-06-28T12:20:45.646Z,39.00
2018-06-28T12:23:14.643Z,37.77
2018-06-28T12:25:43.691Z,43.00
2018-06-28T12:28:12.921Z,45.47
2018-06-28T12:30:41.971Z,43.53
2018-06-28T12:33:11.167Z,44.23
2018-06-28T12:35:40.528Z,43.87
2018-06-28T12:38:09.611Z,40.40
2018-06-28T12:40:38.647Z,43.83
2018-06-28T12:43:07.917Z,41.60
2018-06-28T12:45:36.937Z,37.80
2018-06-28T12:48:10.829Z,44.23
2018-06-28T12:50:39.851Z,37.43
2018-06-28T12:53:10.106Z,40.30
2018-06-28T12:56:48.978Z,43.33
2018-06-28T12:59:20.170Z,51.23
2018-06-28T13:01:49.610Z,51.13
2018-06-28T13:04:18.676Z,55.20
2018-06-28T13:06:47.869Z,56.47
2018-06-28T13:09:18.332Z,49.37
2018-06-28T13:11:47.423Z,53.80
2018-06-28T13:14:16.460Z,61.37
2018-06-28T13:16:45.499Z,54.07
2018-06-28T13:19:14.544Z,55.90
2018-06-28T13:21:43.534Z,48.97
2018-06-28T13:24:12.584Z,50.13
2018-06-28T13:26:41.584Z,57.90
2018-06-28T13:29:10.623Z,62.83
2018-06-28T13:31:39.170Z,57.43
2018-06-28T13:34:08.241Z,73.30
2018-06-28T13:36:37.272Z,65.93
2018-06-28T13:39:07.610Z,63.77
2018-06-28T13:41:37.004Z,56.73
2018-06-28T13:44:05.890Z,62.77
2018-06-28T13:46:35.062Z,60.37
2018-06-28T13:49:04.203Z,71.10
2018-06-28T13:51:33.230Z,59.23
2018-06-28T13:54:02.306Z,48.13
2018-06-28T13:56:31.392Z,55.40
2018-06-28T13:59:00.466Z,49.10
2018-06-28T14:01:29.511Z,57.47
2018-06-28T14:03:58.522Z,58.67
2018-06-28T14:06:27.791Z,52.70
2018-06-28T14:08:57.004Z,70.03
2018-06-28T14:11:26.202Z,67.00
2018-06-28T14:13:55.351Z,66.60
2018-06-28T14:16:25.011Z,60.37
2018-06-28T14:18:54.117Z,67.27
2018-06-28T14:21:23.156Z,69.90
2018-06-28T14:23:52.180Z,70.20
2018-06-28T14:26:21.273Z,64.73
2018-06-28T14:28:50.362Z,50.90
2018-06-28T14:31:19.511Z,46.80
2018-06-28T14:33:48.090Z,52.30
2018-06-28T14:36:17.119Z,46.33
2018-06-28T14:38:46.175Z,56.00
2018-06-28T14:41:15.422Z,43.90
2018-06-28T14:43:44.536Z,45.97
2018-06-28T14:46:13.592Z,74.20
2018-06-28T14:48:42.757Z,49.53
2018-06-28T14:51:11.901Z,55.60
2018-06-28T14:53:40.983Z,51.00
2018-06-28T14:56:10.020Z,53.10
2018-06-28T14:58:39.071Z,33.50
2018-06-28T15:01:08.719Z,39.97
2018-06-28T15:03:37.727Z,40.63
2018-06-28T15:06:06.891Z,32.97
2018-06-28T15:08:35.949Z,30.33
2018-06-28T15:11:05.011Z,32.27
2018-06-28T15:13:34.183Z,34.23
2018-06-28T15:16:03.231Z,35.73
2018-06-28T15:18:32.267Z,33.00
2018-06-28T15:21:01.541Z,35.80
2018-06-28T15:23:30.623Z,33.87
2018-06-28T15:25:59.787Z,35.20
2018-06-28T15:28:28.799Z,31.00
2018-06-28T15:30:57.779Z,39.73
2018-06-28T15:33:26.916Z,34.37
2018-06-28T15:35:55.981Z,33.33
2018-06-28T15:38:25.099Z,30.73
2018-06-28T15:40:54.962Z,34.63
2018-06-28T15:43:24.107Z,36.93
2018-06-28T15:45:53.165Z,35.07
2018-06-28T15:48:22.266Z,32.67
2018-06-28T15:50:51.360Z,32.03
2018-06-28T15:53:20.576Z,24.80
2018-06-28T15:55:49.591Z,26.27
2018-06-28T15:58:18.676Z,27.93
2018-06-28T16:00:47.698Z,27.10
2018-06-28T16:03:16.747Z,26.20
2018-06-28T16:05:45.866Z,24.80
2018-06-28T16:08:14.891Z,25.57
2018-06-28T16:10:43.917Z,24.73
2018-06-28T16:13:12.992Z,27.30
2018-06-28T16:15:42.122Z,30.67
2018-06-28T16:18:11.532Z,26.33
2018-06-28T16:20:40.645Z,21.93
2018-06-28T16:23:09.654Z,22.90
2018-06-28T16:25:38.238Z,23.70
2018-06-28T16:28:07.276Z,26.07
2018-06-28T16:30:36.379Z,30.23
2018-06-28T16:33:05.411Z,27.77
2018-06-28T16:35:34.447Z,27.30
2018-06-28T16:38:03.479Z,22.30
2018-06-28T16:40:32.487Z,26.37
2018-06-28T16:43:01.532Z,23.53
2018-06-28T16:45:30.575Z,25.90
2018-06-28T16:47:59.654Z,26.37
2018-06-28T16:50:29.450Z,24.77
2018-06-28T16:52:58.508Z,24.87
2018-06-28T16:55:27.567Z,24.07
2018-06-28T16:57:56.633Z,25.20
2018-06-28T17:00:25.653Z,24.27
2018-06-28T17:02:54.714Z,33.33
2018-06-28T17:05:23.814Z,22.17
2018-06-28T17:07:53.119Z,35.33
2018-06-28T17:10:22.082Z,25.50
2018-06-28T17:12:51.227Z,26.47
2018-06-28T17:15:20.303Z,35.17
2018-06-28T17:17:49.347Z,28.50
2018-06-28T17:20:18.482Z,25.60
2018-06-28T17:22:49.157Z,29.07
2018-06-28T17:25:18.159Z,36.80
2018-06-28T17:27:47.604Z,27.17
2018-06-28T17:30:16.659Z,28.80
2018-06-28T17:32:45.753Z,33.10
2018-06-28T17:35:14.952Z,28.50
2018-06-28T17:37:43.988Z,36.63
2018-06-28T17:40:13.074Z,30.60
2018-06-28T17:42:41.660Z,25.77
2018-06-28T17:45:10.736Z,28.47
2018-06-28T17:47:39.761Z,30.07
2018-06-28T17:50:08.874Z,26.80
2018-06-28T17:52:37.879Z,28.33
2018-06-28T17:55:06.973Z,31.53
2018-06-28T17:57:36.316Z,24.53
2018-06-28T18:00:09.464Z,29.40
2018-06-28T18:02:38.887Z,23.80
2018-06-28T18:05:08.263Z,24.33
2018-06-28T18:07:38.642Z,28.27
2018-06-28T18:10:08.068Z,29.57
2018-06-28T18:12:37.548Z,28.37
2018-06-28T18:15:07.044Z,34.50
2018-06-28T18:17:36.424Z,30.90
2018-06-28T18:20:06.148Z,31.33
2018-06-28T18:22:35.273Z,35.93
2018-06-28T18:25:05.283Z,30.57
2018-06-28T18:27:34.652Z,30.27
2018-06-28T18:30:04.663Z,31.77
2018-06-28T18:32:34.119Z,33.70
2018-06-28T18:35:03.831Z,32.87
2018-06-28T18:37:33.290Z,31.50
2018-06-28T18:40:02.671Z,26.50
2018-06-28T18:42:32.014Z,29.60
2018-06-28T18:45:00.842Z,29.17
2018-06-28T18:47:30.237Z,29.53
2018-06-28T18:49:59.523Z,26.00
2018-06-28T18:52:29.012Z,28.17
2018-06-28T18:54:58.333Z,25.47
2018-06-28T18:57:27.823Z,31.17
2018-06-28T18:59:57.294Z,25.50
2018-06-28T19:02:26.554Z,28.53
2018-06-28T19:04:59.918Z,26.03
2018-06-28T19:07:29.205Z,27.43
2018-06-28T19:10:03.375Z,27.40
2018-06-28T19:12:32.270Z,29.10
2018-06-28T19:15:06.616Z,25.07
2018-06-28T19:17:36.250Z,26.90
2018-06-28T19:20:06.518Z,30.30
2018-06-28T19:22:41.111Z,27.13
2018-06-28T19:25:10.787Z,31.07
2018-06-28T19:27:40.299Z,26.30
2018-06-28T19:30:14.871Z,29.40
2018-06-28T19:32:44.312Z,30.93
2018-06-28T19:35:13.630Z,25.40
2018-06-28T19:37:47.915Z,30.07
2018-06-28T19:40:22.693Z,27.23
2018-06-28T19:42:59.775Z,26.97
2018-06-28T19:45:29.187Z,31.27
2018-06-28T19:47:58.606Z,30.30
2018-06-28T19:50:32.918Z,28.10
2018-06-28T19:53:07.867Z,28.47
2018-06-28T19:55:37.093Z,37.13
2018-06-28T19:58:06.315Z,32.50
2018-06-28T20:00:41.363Z,31.50
2018-06-28T20:03:15.640Z,35.80
2018-06-28T20:05:44.753Z,32.97
2018-06-28T20:08:13.849Z,39.80
2018-06-28T20:10:43.867Z,35.10
2018-06-28T20:13:18.077Z,33.30
2018-06-28T20:15:54.615Z,41.20
2018-06-28T20:18:29.071Z,28.17
2018-06-28T20:20:59.697Z,32.17
2018-06-28T20:23:28.905Z,31.77
2018-06-28T20:25:58.068Z,35.03
2018-06-28T20:28:32.365Z,35.33
2018-06-28T20:31:07.227Z,30.20
2018-06-28T20:33:41.711Z,32.47
2018-06-28T20:36:11.663Z,30.60
2018-06-28T20:38:41.115Z,33.93
2018-06-28T20:41:10.935Z,28.90
2018-06-28T20:43:41.029Z,29.27
2018-06-28T20:46:11.179Z,33.40
2018-06-28T20:48:40.325Z,34.70
2018-06-28T20:51:09.684Z,28.07
2018-06-28T20:53:39.433Z,31.50
2018-06-28T20:56:09.451Z,27.80
2018-06-28T20:58:39.930Z,34.67
2018-06-28T21:01:10.537Z,35.87
2018-06-28T21:03:39.592Z,36.37
2018-06-28T21:06:09.057Z,31.50
2018-06-28T21:08:39.400Z,32.03
2018-06-28T21:11:09.478Z,32.87
2018-06-28T21:13:39.777Z,30.30
2018-06-28T21:16:09.659Z,33.13
2018-06-28T21:18:39.593Z,31.73
2018-06-28T21:21:09.558Z,34.03
2018-06-28T21:23:38.697Z,35.93
2018-06-28T21:26:09.328Z,33.57
2018-06-28T21:28:38.367Z,26.10
2018-06-28T21:31:08.333Z,30.00
2018-06-28T21:33:37.679Z,30.07
2018-06-28T21:36:07.056Z,34.63
2018-06-28T21:38:36.566Z,44.97
2018-06-28T21:41:06.355Z,42.70
2018-06-28T21:43:35.829Z,43.73
2018-06-28T21:46:05.266Z,35.10
2018-06-28T21:48:34.589Z,32.73
2018-06-28T21:51:04.259Z,32.30
2018-06-28T21:53:33.778Z,38.60
2018-06-28T21:56:03.600Z,38.47
2018-06-28T21:58:33.186Z,48.17
2018-06-28T22:01:03.059Z,32.90
2018-06-28T22:03:32.125Z,31.07
2018-06-28T22:06:01.249Z,45.10
2018-06-28T22:08:30.344Z,36.30
2018-06-28T22:10:59.367Z,48.50
2018-06-28T22:13:28.451Z,37.30
2018-06-28T22:15:57.565Z,32.83
2018-06-28T22:18:26.653Z,38.87
2018-06-28T22:20:55.729Z,34.93
2018-06-28T22:23:24.762Z,41.20
2018-06-28T22:25:53.878Z,36.57
2018-06-28T22:28:22.957Z,40.30
2018-06-28T22:30:52.035Z,33.50
2018-06-28T22:33:21.027Z,34.00
2018-06-28T22:35:50.090Z,35.00
2018-06-28T22:38:19.089Z,49.93
2018-06-28T22:40:48.144Z,37.43
2018-06-28T22:43:17.243Z,32.80
2018-06-28T22:45:46.271Z,41.33
2018-06-28T22:48:15.315Z,51.20
2018-06-28T22:50:44.328Z,51.03
2018-06-28T22:53:13.391Z,48.63
2018-06-28T22:55:42.394Z,57.27
2018-06-28T22:58:11.463Z,65.73
2018-06-28T23:00:40.520Z,51.13
2018-06-28T23:03:09.595Z,49.03
2018-06-28T23:05:38.660Z,54.63
2018-06-28T23:08:07.685Z,48.03
2018-06-28T23:10:36.771Z,58.57
2018-06-28T23:13:05.939Z,51.30
2018-06-28T23:15:35.019Z,47.03
2018-06-28T23:18:04.118Z,69.97
2018-06-28T23:20:33.160Z,47.13
2018-06-28T23:23:02.242Z,49.00
2018-06-28T23:25:31.321Z,39.40
2018-06-28T23:28:00.408Z,52.90
2018-06-28T23:30:29.431Z,52.97
2018-06-28T23:32:58.557Z,48.57
2018-06-28T23:35:27.547Z,57.17
2018-06-28T23:37:56.610Z,47.00
2018-06-28T23:40:25.711Z,45.43
2018-06-28T23:42:54.743Z,54.73
2018-06-28T23:45:23.820Z,52.60
2018-06-28T23:47:52.879Z,52.00
2018-06-28T23:50:21.963Z,54.33
2018-06-28T23:52:51.132Z,54.03
2018-06-28T23:55:20.170Z,43.67
2018-06-28T23:57:49.222Z,63.87
